createdAt,value
2023-05-03T00:00:30.771Z,5.24
2023-05-03T00:01:35.363Z,5.19
2023-05-03T00:02:39.689Z,5.15
2023-05-03T00:03:43.505Z,5.14
2023-05-03T00:04:47.873Z,5.16
2023-05-03T00:05:52.446Z,5.16
2023-05-03T00:06:56.512Z,5.18
2023-05-03T00:08:01.120Z,5.16
2023-05-03T00:09:05.699Z,5.14
2023-05-03T00:10:10.044Z,5.11
2023-05-03T00:11:13.859Z,5.05
2023-05-03T00:12:18.194Z,5.01
2023-05-03T00:13:22.802Z,4.88
2023-05-03T00:14:27.123Z,4.84
2023-05-03T00:15:31.469Z,4.87
2023-05-03T00:16:35.801Z,4.88
2023-05-03T00:17:40.165Z,4.87
2023-05-03T00:18:44.737Z,4.93
2023-05-03T00:19:44.335Z,4.88
2023-05-03T00:20:48.929Z,4.86
2023-05-03T00:21:53.274Z,4.87
2023-05-03T00:23:05.316Z,4.87
2023-05-03T00:24:01.963Z,4.86
2023-05-03T00:25:06.016Z,4.85
2023-05-03T00:26:10.364Z,4.85
2023-05-03T00:27:14.684Z,4.84
2023-05-03T00:28:19.029Z,4.68
2023-05-03T00:29:23.898Z,4.58
2023-05-03T00:30:27.953Z,4.64
2023-05-03T00:31:32.297Z,4.65
2023-05-03T00:32:36.450Z,4.54
2023-05-03T00:33:40.692Z,4.43
2023-05-03T00:34:45.291Z,4.41
2023-05-03T00:35:49.631Z,4.44
2023-05-03T00:36:53.959Z,4.46
2023-05-03T00:37:58.032Z,4.51
2023-05-03T00:39:02.888Z,4.51
2023-05-03T00:40:06.968Z,4.54
2023-05-03T00:41:11.081Z,4.47
2023-05-03T00:42:15.385Z,4.38
2023-05-03T00:43:19.720Z,4.33
2023-05-03T00:44:24.332Z,4.33
2023-05-03T00:45:28.409Z,4.32
2023-05-03T00:46:32.736Z,4.27
2023-05-03T00:47:37.121Z,4.23
2023-05-03T00:48:41.945Z,4.18
2023-05-03T00:49:41.515Z,4.12
2023-05-03T00:50:46.370Z,3.97
2023-05-03T00:51:50.450Z,4.02
2023-05-03T00:52:54.563Z,4.03
2023-05-03T00:53:58.870Z,4.06
2023-05-03T00:55:03.241Z,4.09
2023-05-03T00:56:07.807Z,4.11
2023-05-03T00:57:11.883Z,4.10
2023-05-03T00:58:16.494Z,4.04
2023-05-03T00:59:20.863Z,3.94
2023-05-03T01:00:25.173Z,3.91
2023-05-03T01:01:29.317Z,3.70
2023-05-03T01:02:33.981Z,3.74
2023-05-03T01:03:38.247Z,3.81
2023-05-03T01:04:43.343Z,3.81
2023-05-03T01:05:46.601Z,3.83
2023-05-03T01:06:51.272Z,3.80
2023-05-03T01:07:55.544Z,3.85
2023-05-03T01:09:00.145Z,3.83
2023-05-03T01:10:04.573Z,3.86
2023-05-03T01:11:11.374Z,3.78
2023-05-03T01:12:10.497Z,3.81
2023-05-03T01:13:14.858Z,3.80
2023-05-03T01:14:19.171Z,3.74
2023-05-03T01:15:23.514Z,3.74
2023-05-03T01:16:27.867Z,3.70
2023-05-03T01:17:32.519Z,3.71
2023-05-03T01:18:37.027Z,3.67
2023-05-03T01:19:36.660Z,3.63
2023-05-03T01:20:41.545Z,3.51
2023-05-03T01:21:45.845Z,3.50
2023-05-03T01:22:49.679Z,3.46
2023-05-03T01:23:54.033Z,3.48
2023-05-03T01:24:58.391Z,3.49
2023-05-03T01:26:02.707Z,3.55
2023-05-03T01:27:07.303Z,3.60
2023-05-03T01:28:11.654Z,3.63
2023-05-03T01:29:16.004Z,3.60
2023-05-03T01:30:20.617Z,3.63
2023-05-03T01:31:24.956Z,3.63
2023-05-03T01:32:29.020Z,3.63
2023-05-03T01:33:33.109Z,3.58
2023-05-03T01:34:37.407Z,3.47
2023-05-03T01:35:42.000Z,3.40
2023-05-03T01:36:46.180Z,3.45
2023-05-03T01:37:50.710Z,3.46
2023-05-03T01:38:54.760Z,3.45
2023-05-03T01:39:59.377Z,3.51
2023-05-03T01:41:03.091Z,3.53
2023-05-03T01:42:05.230Z,3.52
2023-05-03T01:43:09.576Z,3.51
2023-05-03T01:44:13.916Z,3.53
2023-05-03T01:45:17.973Z,3.56
2023-05-03T01:46:22.434Z,3.58
2023-05-03T01:47:26.679Z,3.56
2023-05-03T01:48:31.263Z,3.52
2023-05-03T01:49:31.433Z,3.50
2023-05-03T01:50:35.523Z,3.47
2023-05-03T01:51:39.914Z,3.41
2023-05-03T01:52:44.451Z,3.36
2023-05-03T01:53:48.819Z,3.36
2023-05-03T01:54:53.148Z,3.39
2023-05-03T01:55:57.470Z,3.35
2023-05-03T01:57:01.568Z,3.33
2023-05-03T01:58:05.907Z,3.33
2023-05-03T01:59:10.227Z,3.30
2023-05-03T02:00:14.859Z,3.27
2023-05-03T02:01:19.241Z,3.26
2023-05-03T02:02:23.790Z,3.24
2023-05-03T02:03:27.620Z,3.23
2023-05-03T02:04:32.297Z,3.10
2023-05-03T02:05:36.537Z,3.00
2023-05-03T02:06:40.658Z,2.93
2023-05-03T02:07:45.242Z,2.88
2023-05-03T02:08:50.078Z,2.92
2023-05-03T02:09:54.681Z,2.96
2023-05-03T02:10:59.026Z,3.00
2023-05-03T02:12:02.838Z,3.03
2023-05-03T02:13:07.196Z,3.04
2023-05-03T02:14:11.764Z,3.06
2023-05-03T02:15:16.115Z,3.06
2023-05-03T02:16:20.477Z,3.09
2023-05-03T02:17:24.556Z,3.07
2023-05-03T02:18:29.126Z,3.06
2023-05-03T02:19:29.325Z,3.09
2023-05-03T02:20:33.710Z,3.09
2023-05-03T02:21:38.265Z,3.09
2023-05-03T02:22:42.614Z,3.09
2023-05-03T02:23:46.681Z,3.05
2023-05-03T02:24:51.033Z,3.00
2023-05-03T02:25:55.102Z,2.99
2023-05-03T02:26:59.441Z,2.97
2023-05-03T02:28:03.774Z,2.99
2023-05-03T02:29:08.109Z,3.00
2023-05-03T02:30:12.741Z,2.97
2023-05-03T02:31:17.363Z,2.86
2023-05-03T02:32:21.634Z,2.84
2023-05-03T02:33:25.735Z,2.81
2023-05-03T02:34:30.090Z,2.80
2023-05-03T02:35:34.424Z,2.78
2023-05-03T02:36:38.563Z,2.80
2023-05-03T02:37:42.837Z,2.81
2023-05-03T02:38:47.442Z,2.82
2023-05-03T02:39:52.036Z,2.82
2023-05-03T02:40:56.134Z,2.82
2023-05-03T02:42:00.757Z,2.78
2023-05-03T02:43:04.816Z,2.73
2023-05-03T02:44:09.147Z,2.64
2023-05-03T02:45:13.497Z,2.63
2023-05-03T02:46:17.588Z,2.61
2023-05-03T02:47:22.170Z,2.60
2023-05-03T02:48:26.496Z,2.59
2023-05-03T02:49:26.639Z,2.61
2023-05-03T02:50:30.980Z,2.60
2023-05-03T02:51:35.570Z,2.57
2023-05-03T02:52:39.941Z,2.57
2023-05-03T02:53:43.992Z,2.60
2023-05-03T02:54:48.065Z,2.58
2023-05-03T02:55:52.409Z,2.59
2023-05-03T02:56:57.009Z,2.59
2023-05-03T02:58:01.119Z,2.60
2023-05-03T02:59:03.064Z,2.61
2023-05-03T03:00:10.397Z,2.57
2023-05-03T03:01:14.841Z,2.53
2023-05-03T03:02:19.069Z,2.49
2023-05-03T03:03:23.445Z,2.49
2023-05-03T03:04:27.492Z,2.45
2023-05-03T03:05:32.075Z,2.46
2023-05-03T03:06:36.468Z,2.47
2023-05-03T03:07:40.504Z,2.46
2023-05-03T03:08:45.123Z,2.37
2023-05-03T03:09:49.688Z,2.39
2023-05-03T03:10:53.857Z,2.38
2023-05-03T03:11:58.181Z,2.39
2023-05-03T03:13:02.530Z,2.39
2023-05-03T03:14:06.877Z,2.38
2023-05-03T03:15:10.954Z,2.35
2023-05-03T03:16:15.405Z,2.35
2023-05-03T03:17:19.894Z,2.32
2023-05-03T03:18:24.211Z,2.32
2023-05-03T03:19:24.359Z,2.34
2023-05-03T03:20:28.689Z,2.34
2023-05-03T03:21:33.278Z,2.33
2023-05-03T03:22:37.109Z,2.31
2023-05-03T03:23:41.697Z,2.32
2023-05-03T03:24:46.091Z,2.33
2023-05-03T03:25:50.135Z,2.30
2023-05-03T03:26:54.742Z,2.26
2023-05-03T03:27:59.085Z,2.25
2023-05-03T03:29:03.158Z,2.25
2023-05-03T03:30:08.079Z,2.22
2023-05-03T03:31:12.121Z,2.21
2023-05-03T03:32:16.201Z,2.19
2023-05-03T03:33:23.651Z,2.18
2023-05-03T03:34:24.873Z,2.15
2023-05-03T03:35:29.215Z,2.14
2023-05-03T03:36:33.821Z,2.11
2023-05-03T03:37:37.880Z,2.12
2023-05-03T03:38:42.478Z,2.11
2023-05-03T03:39:47.078Z,2.12
2023-05-03T03:40:51.210Z,2.13
2023-05-03T03:41:55.494Z,2.14
2023-05-03T03:42:59.587Z,2.10
2023-05-03T03:44:04.188Z,2.11
2023-05-03T03:45:08.533Z,2.10
2023-05-03T03:46:12.883Z,2.03
2023-05-03T03:47:16.991Z,1.97
2023-05-03T03:48:21.796Z,1.96
2023-05-03T03:49:22.251Z,1.95
2023-05-03T03:50:26.593Z,1.91
2023-05-03T03:51:31.169Z,1.91
2023-05-03T03:52:35.268Z,1.91
2023-05-03T03:53:39.609Z,1.89
2023-05-03T03:54:43.960Z,1.89
2023-05-03T03:55:48.276Z,1.88
2023-05-03T03:56:52.666Z,1.90
2023-05-03T03:57:56.712Z,1.89
2023-05-03T03:59:01.317Z,1.92
2023-05-03T04:00:06.064Z,1.97
2023-05-03T04:01:09.981Z,2.00
2023-05-03T04:02:14.390Z,2.02
2023-05-03T04:03:18.467Z,2.07
2023-05-03T04:04:22.800Z,2.09
2023-05-03T04:05:27.099Z,2.09
2023-05-03T04:06:31.437Z,2.07
2023-05-03T04:07:35.768Z,2.03
2023-05-03T04:08:40.358Z,2.03
2023-05-03T04:09:44.444Z,2.04
2023-05-03T04:10:49.053Z,2.05
2023-05-03T04:11:53.378Z,2.02
2023-05-03T04:12:57.501Z,2.01
2023-05-03T04:14:01.821Z,1.94
2023-05-03T04:15:06.147Z,1.88
2023-05-03T04:16:10.741Z,1.83
2023-05-03T04:17:15.152Z,1.85
2023-05-03T04:18:19.680Z,1.86
2023-05-03T04:19:19.846Z,1.85
2023-05-03T04:20:23.905Z,1.88
2023-05-03T04:21:28.259Z,1.95
2023-05-03T04:22:32.589Z,1.94
2023-05-03T04:23:36.923Z,1.98
2023-05-03T04:24:49.140Z,2.05
2023-05-03T04:25:45.585Z,2.09
2023-05-03T04:26:49.932Z,2.09
2023-05-03T04:27:54.277Z,2.13
2023-05-03T04:28:58.631Z,2.19
2023-05-03T04:30:03.650Z,2.22
2023-05-03T04:31:07.308Z,2.30
2023-05-03T04:32:11.369Z,2.38
2023-05-03T04:33:15.714Z,2.43
2023-05-03T04:34:20.313Z,2.50
2023-05-03T04:35:24.383Z,2.53
2023-05-03T04:36:28.739Z,2.69
2023-05-03T04:37:33.323Z,3.04
2023-05-03T04:38:37.677Z,3.50
2023-05-03T04:39:42.015Z,3.92
2023-05-03T04:40:46.090Z,4.46
2023-05-03T04:41:50.684Z,4.82
2023-05-03T04:42:54.767Z,5.07
2023-05-03T04:43:59.358Z,5.22
2023-05-03T04:45:03.451Z,5.32
2023-05-03T04:46:08.088Z,5.65
2023-05-03T04:47:12.623Z,5.83
2023-05-03T04:48:16.971Z,6.25
2023-05-03T04:49:22.061Z,6.55
2023-05-03T04:50:26.137Z,6.81
2023-05-03T04:51:30.472Z,6.95
2023-05-03T04:52:34.835Z,7.05
2023-05-03T04:53:39.400Z,7.02
2023-05-03T04:54:43.759Z,6.96
2023-05-03T04:58:39.701Z,6.47
2023-05-03T04:59:44.836Z,6.33
2023-05-03T05:00:49.582Z,6.20
2023-05-03T05:01:53.820Z,5.99
2023-05-03T05:02:58.220Z,5.94
2023-05-03T05:04:02.441Z,5.88
2023-05-03T05:05:06.501Z,5.87
2023-05-03T05:06:10.851Z,5.85
2023-05-03T05:07:15.440Z,5.74
2023-05-03T05:08:19.525Z,5.74
2023-05-03T05:09:24.118Z,5.71
2023-05-03T05:10:28.711Z,5.77
2023-05-03T05:11:33.025Z,5.79
2023-05-03T05:12:36.849Z,5.82
2023-05-03T05:13:41.189Z,6.16
2023-05-03T05:14:45.790Z,6.53
2023-05-03T05:15:49.852Z,6.96
2023-05-03T05:16:54.528Z,7.34
2023-05-03T05:17:58.942Z,7.66
2023-05-03T05:19:02.853Z,8.07
2023-05-03T05:20:07.476Z,8.39
2023-05-03T05:21:11.522Z,8.68
2023-05-03T05:22:15.852Z,9.06
2023-05-03T05:23:20.200Z,9.45
2023-05-03T05:24:24.786Z,9.64
2023-05-03T05:25:29.105Z,9.93
2023-05-03T05:26:33.461Z,9.97
2023-05-03T05:27:37.589Z,10.23
2023-05-03T05:28:37.673Z,10.48
2023-05-03T05:29:41.996Z,10.68
2023-05-03T05:30:46.820Z,11.05
2023-05-03T05:31:50.920Z,11.10
2023-05-03T05:32:55.207Z,11.33
2023-05-03T05:33:59.337Z,11.75
2023-05-03T05:35:03.908Z,12.07
2023-05-03T05:36:08.250Z,12.19
2023-05-03T05:37:12.622Z,12.49
2023-05-03T05:38:16.919Z,12.43
2023-05-03T05:39:20.985Z,12.50
2023-05-03T05:40:25.838Z,12.71
2023-05-03T05:41:29.908Z,13.16
2023-05-03T05:42:33.997Z,13.43
2023-05-03T05:43:38.328Z,13.66
2023-05-03T05:44:42.670Z,13.92
2023-05-03T05:45:46.989Z,13.78
2023-05-03T05:46:51.365Z,14.03
2023-05-03T05:47:55.719Z,13.59
2023-05-03T05:49:00.363Z,13.70
2023-05-03T05:50:15.055Z,13.27
2023-05-03T05:52:14.170Z,12.67
2023-05-03T05:53:13.026Z,12.70
2023-05-03T05:54:17.544Z,13.00
2023-05-03T05:55:22.541Z,13.22
2023-05-03T05:56:26.381Z,13.34
2023-05-03T05:57:30.422Z,13.58
2023-05-03T05:58:34.776Z,13.79
2023-05-03T05:59:39.139Z,14.30
2023-05-03T06:00:43.779Z,14.55
2023-05-03T06:01:48.138Z,14.41
2023-05-03T06:02:52.316Z,14.66
2023-05-03T06:03:57.048Z,14.82
2023-05-03T06:05:01.525Z,14.86
2023-05-03T06:06:05.263Z,15.07
2023-05-03T06:07:09.807Z,14.96
2023-05-03T06:08:14.154Z,15.59
2023-05-03T06:09:24.829Z,15.45
2023-05-03T06:10:22.564Z,15.84
2023-05-03T06:11:27.146Z,16.03
2023-05-03T06:12:31.523Z,16.05
2023-05-03T06:13:35.865Z,16.14
2023-05-03T06:14:46.259Z,16.18
2023-05-03T06:15:44.269Z,16.50
2023-05-03T06:16:48.920Z,16.58
2023-05-03T06:17:53.258Z,16.57
2023-05-03T06:18:57.552Z,16.43
2023-05-03T06:20:01.832Z,16.24
2023-05-03T06:21:06.269Z,16.67
2023-05-03T06:22:06.082Z,16.93
2023-05-03T06:23:16.909Z,16.49
2023-05-03T06:24:15.010Z,16.77
2023-05-03T06:25:19.357Z,16.64
2023-05-03T06:26:23.682Z,16.55
2023-05-03T06:27:28.028Z,16.57
2023-05-03T06:28:32.378Z,16.69
2023-05-03T06:29:36.467Z,16.85
2023-05-03T06:30:40.845Z,16.81
2023-05-03T06:31:45.371Z,16.79
2023-05-03T06:32:49.824Z,16.89
2023-05-03T06:33:54.109Z,17.12
2023-05-03T06:34:58.439Z,17.02
2023-05-03T06:36:02.519Z,17.23
2023-05-03T06:37:06.900Z,17.36
2023-05-03T06:38:11.204Z,17.86
2023-05-03T06:39:15.799Z,18.04
2023-05-03T06:40:20.142Z,18.25
2023-05-03T06:41:24.203Z,18.34
2023-05-03T06:42:28.806Z,18.53
2023-05-03T06:43:33.146Z,18.87
2023-05-03T06:44:37.495Z,18.90
2023-05-03T06:45:41.562Z,18.93
2023-05-03T06:46:46.221Z,19.21
2023-05-03T06:47:50.560Z,19.14
2023-05-03T06:48:54.613Z,19.02
2023-05-03T06:49:59.224Z,19.32
2023-05-03T06:51:03.537Z,19.31
2023-05-03T06:52:03.420Z,19.06
2023-05-03T06:53:08.121Z,19.22
2023-05-03T06:54:12.599Z,19.22
2023-05-03T06:55:16.958Z,19.50
2023-05-03T06:56:21.016Z,19.40
2023-05-03T06:57:26.465Z,19.32
2023-05-03T06:58:29.425Z,19.37
2023-05-03T06:59:33.783Z,19.44
2023-05-03T07:00:38.354Z,19.73
2023-05-03T07:01:42.782Z,20.03
2023-05-03T07:02:47.366Z,20.23
2023-05-03T07:03:51.740Z,20.39
2023-05-03T07:04:55.437Z,20.63
2023-05-03T07:05:59.774Z,20.82
2023-05-03T07:07:04.500Z,20.98
2023-05-03T07:08:08.472Z,20.79
2023-05-03T07:09:12.858Z,20.94
2023-05-03T07:10:17.434Z,21.02
2023-05-03T07:11:21.448Z,21.27
2023-05-03T07:12:26.047Z,21.54
2023-05-03T07:13:30.617Z,21.82
2023-05-03T07:14:34.722Z,21.72
2023-05-03T07:15:39.034Z,21.94
2023-05-03T07:16:43.164Z,22.11
2023-05-03T07:17:47.451Z,22.01
2023-05-03T07:18:51.791Z,21.93
2023-05-03T07:19:56.105Z,21.87
2023-05-03T07:21:00.457Z,21.65
2023-05-03T07:22:00.836Z,21.51
2023-05-03T07:23:05.139Z,21.16
2023-05-03T07:24:09.741Z,20.65
2023-05-03T07:25:13.875Z,21.22
2023-05-03T07:26:18.201Z,21.52
2023-05-03T07:27:22.479Z,21.68
2023-05-03T07:28:26.571Z,21.99
2023-05-03T07:29:30.916Z,22.04
2023-05-03T07:30:35.263Z,21.98
2023-05-03T07:31:39.627Z,22.20
2023-05-03T07:32:44.575Z,22.42
2023-05-03T07:33:48.986Z,22.35
2023-05-03T07:34:52.909Z,22.83
2023-05-03T07:35:56.986Z,22.87
2023-05-03T07:37:01.332Z,23.15
2023-05-03T07:38:05.670Z,23.52
2023-05-03T07:39:10.287Z,23.23
2023-05-03T07:40:14.643Z,23.43
2023-05-03T07:41:18.998Z,23.47
2023-05-03T07:42:23.286Z,23.78
2023-05-03T07:43:27.654Z,24.07
2023-05-03T07:44:30.928Z,23.94
2023-05-03T07:45:36.067Z,23.88
2023-05-03T07:46:40.663Z,23.73
2023-05-03T07:47:45.030Z,23.81
2023-05-03T07:48:49.083Z,24.21
2023-05-03T07:49:53.690Z,24.54
2023-05-03T07:50:58.014Z,24.51
2023-05-03T07:51:58.262Z,24.43
2023-05-03T07:53:02.615Z,24.61
2023-05-03T07:54:07.185Z,24.65
2023-05-03T07:55:11.030Z,24.97
2023-05-03T07:56:15.663Z,24.86
2023-05-03T07:57:20.113Z,24.73
2023-05-03T07:58:38.858Z,24.65
2023-05-03T07:59:28.390Z,24.95
2023-05-03T08:00:32.724Z,25.13
2023-05-03T08:01:37.054Z,25.30
2023-05-03T08:02:41.632Z,25.27
2023-05-03T08:03:46.181Z,25.46
2023-05-03T08:04:50.404Z,25.50
2023-05-03T08:05:54.650Z,25.42
2023-05-03T08:06:58.991Z,25.74
2023-05-03T08:08:03.073Z,25.83
2023-05-03T08:09:07.710Z,26.17
2023-05-03T08:10:11.765Z,26.00
2023-05-03T08:11:16.361Z,26.22
2023-05-03T08:12:20.702Z,26.38
2023-05-03T08:13:25.155Z,26.57
2023-05-03T08:14:29.115Z,26.69
2023-05-03T08:15:33.756Z,26.44
2023-05-03T08:16:37.810Z,26.64
2023-05-03T08:17:44.951Z,26.39
2023-05-03T08:18:44.332Z,26.51
2023-05-03T08:22:32.853Z,25.82
2023-05-03T08:23:37.179Z,26.11
2023-05-03T08:24:41.786Z,26.45
2023-05-03T08:25:46.118Z,26.39
2023-05-03T08:26:50.767Z,26.73
2023-05-03T08:27:55.061Z,26.66
2023-05-03T08:28:59.176Z,26.16
2023-05-03T08:30:03.827Z,26.37
2023-05-03T08:31:07.618Z,26.51
2023-05-03T08:32:12.191Z,26.80
2023-05-03T08:33:16.548Z,26.43
2023-05-03T08:34:20.609Z,26.12
2023-05-03T08:35:25.471Z,26.43
2023-05-03T08:36:29.558Z,26.72
2023-05-03T08:37:33.880Z,26.45
2023-05-03T08:38:37.996Z,26.45
2023-05-03T08:39:42.307Z,26.42
2023-05-03T08:40:46.655Z,26.54
2023-05-03T08:41:51.276Z,26.43
2023-05-03T08:42:55.622Z,26.36
2023-05-03T08:43:59.995Z,26.18
2023-05-03T08:45:04.425Z,26.29
2023-05-03T08:46:08.696Z,26.31
2023-05-03T08:47:12.999Z,26.36
2023-05-03T08:48:17.107Z,26.85
2023-05-03T08:49:21.470Z,27.25
2023-05-03T08:50:25.765Z,27.39
2023-05-03T08:51:29.879Z,27.12
2023-05-03T08:52:30.487Z,26.94
2023-05-03T08:53:34.578Z,25.94
2023-05-03T08:54:39.157Z,25.13
2023-05-03T08:55:43.525Z,24.35
2023-05-03T08:56:47.861Z,23.32
2023-05-03T08:57:52.203Z,22.69
2023-05-03T08:58:56.270Z,22.26
2023-05-03T09:00:01.068Z,22.24
2023-05-03T09:01:04.984Z,21.90
2023-05-03T09:02:09.367Z,21.44
2023-05-03T09:03:13.721Z,21.79
2023-05-03T09:04:18.469Z,21.87
2023-05-03T09:05:22.791Z,21.72
2023-05-03T09:06:27.208Z,22.14
2023-05-03T09:07:27.705Z,22.23
2023-05-03T09:08:34.802Z,23.00
2023-05-03T09:09:39.381Z,23.43
2023-05-03T09:10:43.519Z,23.67
2023-05-03T09:11:47.854Z,23.05
2023-05-03T09:12:52.194Z,22.66
2023-05-03T09:13:56.524Z,23.45
2023-05-03T09:15:01.421Z,23.86
2023-05-03T09:16:05.257Z,24.25
2023-05-03T09:17:09.864Z,24.49
2023-05-03T09:18:14.146Z,24.77
2023-05-03T09:19:18.495Z,25.16
2023-05-03T09:20:22.968Z,25.56
2023-05-03T09:21:27.138Z,25.41
2023-05-03T09:22:27.275Z,25.85
2023-05-03T09:23:32.038Z,25.99
2023-05-03T09:24:35.943Z,26.40
2023-05-03T09:25:40.022Z,26.51
2023-05-03T09:26:44.861Z,26.54
2023-05-03T09:27:48.685Z,25.65
2023-05-03T09:28:53.291Z,25.97
2023-05-03T09:29:57.640Z,26.24
2023-05-03T09:31:01.973Z,26.59
2023-05-03T09:32:06.242Z,26.53
2023-05-03T09:33:10.619Z,26.23
2023-05-03T09:34:14.998Z,26.74
2023-05-03T09:35:19.586Z,26.50
2023-05-03T09:36:23.696Z,26.68
2023-05-03T09:37:28.005Z,26.57
2023-05-03T09:38:32.093Z,26.36
2023-05-03T09:39:36.700Z,26.65
2023-05-03T09:40:41.063Z,26.78
2023-05-03T09:41:45.130Z,26.76
2023-05-03T09:42:49.758Z,26.61
2023-05-03T09:43:53.838Z,26.86
2023-05-03T09:44:58.437Z,26.51
2023-05-03T09:46:02.552Z,26.75
2023-05-03T09:47:06.926Z,26.52
2023-05-03T09:48:11.281Z,26.86
2023-05-03T09:49:17.494Z,26.82
2023-05-03T09:50:16.997Z,26.83
2023-05-03T09:51:21.092Z,26.75
2023-05-03T09:52:21.209Z,26.79
2023-05-03T09:53:25.812Z,26.98
2023-05-03T09:54:30.160Z,26.30
2023-05-03T09:55:34.482Z,25.19
2023-05-03T09:56:38.558Z,25.75
2023-05-03T09:57:43.435Z,25.89
2023-05-03T09:58:47.496Z,26.17
2023-05-03T09:59:51.598Z,25.63
2023-05-03T10:00:56.257Z,25.98
2023-05-03T10:02:00.579Z,26.32
2023-05-03T10:03:04.668Z,26.59
2023-05-03T10:04:09.276Z,26.40
2023-05-03T10:05:13.344Z,26.10
2023-05-03T10:06:18.192Z,25.97
2023-05-03T10:07:22.499Z,25.83
2023-05-03T10:08:26.358Z,26.19
2023-05-03T10:09:30.735Z,25.59
2023-05-03T10:10:35.326Z,24.48
2023-05-03T10:11:39.662Z,24.23
2023-05-03T10:12:44.010Z,23.60
2023-05-03T10:13:48.077Z,22.87
2023-05-03T10:14:52.695Z,22.87
2023-05-03T10:15:57.328Z,22.61
2023-05-03T10:17:01.674Z,22.86
2023-05-03T10:18:05.750Z,22.54
2023-05-03T10:19:11.946Z,22.85
2023-05-03T10:20:14.388Z,23.20
2023-05-03T10:21:18.499Z,23.51
2023-05-03T10:22:18.845Z,22.73
2023-05-03T10:23:23.181Z,23.30
2023-05-03T10:24:27.504Z,23.71
2023-05-03T10:25:31.837Z,24.05
2023-05-03T10:26:35.906Z,24.53
2023-05-03T10:27:40.493Z,24.20
2023-05-03T10:28:44.579Z,24.67
2023-05-03T10:29:49.480Z,23.31
2023-05-03T10:30:53.536Z,23.53
2023-05-03T10:31:57.669Z,23.72
2023-05-03T10:33:02.220Z,24.35
2023-05-03T10:34:06.499Z,24.51
2023-05-03T10:35:10.670Z,24.80
2023-05-03T10:36:15.440Z,24.54
2023-05-03T10:37:19.838Z,24.35
2023-05-03T10:38:23.932Z,23.95
2023-05-03T10:39:28.014Z,23.67
2023-05-03T10:40:32.628Z,23.62
2023-05-03T10:41:36.950Z,24.07
2023-05-03T10:42:41.040Z,22.53
2023-05-03T10:43:45.644Z,23.04
2023-05-03T10:44:49.744Z,23.04
2023-05-03T10:45:54.586Z,23.28
2023-05-03T10:46:58.396Z,23.70
2023-05-03T10:48:03.050Z,23.90
2023-05-03T10:49:07.078Z,23.44
2023-05-03T10:50:11.430Z,23.00
2023-05-03T10:51:15.758Z,22.87
2023-05-03T10:52:16.218Z,23.59
2023-05-03T10:53:20.571Z,23.96
2023-05-03T10:54:24.892Z,23.98
2023-05-03T10:55:29.234Z,23.90
2023-05-03T10:56:33.558Z,23.87
2023-05-03T10:57:39.558Z,23.79
2023-05-03T10:58:42.239Z,23.07
2023-05-03T10:59:46.304Z,22.28
2023-05-03T11:00:50.892Z,22.51
2023-05-03T11:01:55.126Z,23.01
2023-05-03T11:02:59.412Z,22.62
2023-05-03T11:04:03.878Z,22.18
2023-05-03T11:05:08.537Z,22.22
2023-05-03T11:06:12.911Z,21.94
2023-05-03T11:07:17.003Z,21.98
2023-05-03T11:08:21.067Z,22.09
2023-05-03T11:09:25.730Z,22.47
2023-05-03T11:10:29.992Z,23.13
2023-05-03T11:11:34.085Z,22.94
2023-05-03T11:12:38.660Z,23.50
2023-05-03T11:13:42.813Z,23.90
2023-05-03T11:14:47.346Z,24.26
2023-05-03T11:15:51.679Z,24.73
2023-05-03T11:16:56.184Z,25.20
2023-05-03T11:18:00.208Z,25.61
2023-05-03T11:19:04.719Z,25.32
2023-05-03T11:20:09.042Z,24.64
2023-05-03T11:21:13.149Z,24.37
2023-05-03T11:22:13.606Z,24.65
2023-05-03T11:23:17.929Z,24.84
2023-05-03T11:24:22.000Z,25.22
2023-05-03T11:25:26.634Z,25.11
2023-05-03T11:26:31.183Z,24.78
2023-05-03T11:27:35.524Z,24.32
2023-05-03T11:28:39.626Z,24.41
2023-05-03T11:29:43.945Z,24.85
2023-05-03T11:30:48.018Z,25.18
2023-05-03T11:31:52.432Z,25.32
2023-05-03T11:32:56.783Z,25.42
2023-05-03T11:34:01.299Z,25.74
2023-05-03T11:35:06.142Z,25.84
2023-05-03T11:36:10.079Z,26.19
2023-05-03T11:37:14.062Z,26.12
2023-05-03T11:38:18.665Z,25.53
2023-05-03T11:39:23.021Z,25.68
2023-05-03T11:40:27.112Z,25.29
2023-05-03T11:41:31.764Z,25.08
2023-05-03T11:42:36.076Z,24.55
2023-05-03T11:43:40.162Z,25.10
2023-05-03T11:44:45.047Z,25.15
2023-05-03T11:45:49.414Z,25.36
2023-05-03T11:46:53.319Z,25.50
2023-05-03T11:47:57.890Z,25.77
2023-05-03T11:49:01.910Z,25.79
2023-05-03T11:50:06.256Z,26.09
2023-05-03T11:51:10.849Z,26.04
2023-05-03T11:52:11.146Z,26.32
2023-05-03T11:53:15.527Z,26.29
2023-05-03T11:54:26.075Z,26.33
2023-05-03T11:55:24.250Z,26.30
2023-05-03T11:56:28.591Z,25.58
2023-05-03T11:57:33.068Z,25.93
2023-05-03T11:58:37.037Z,26.16
2023-05-03T11:59:41.403Z,25.70
2023-05-03T12:00:45.769Z,26.08
2023-05-03T12:01:50.428Z,26.08
2023-05-03T12:02:54.648Z,26.19
2023-05-03T12:03:59.359Z,26.13
2023-05-03T12:05:04.074Z,26.09
2023-05-03T12:06:08.442Z,26.34
2023-05-03T12:07:13.454Z,26.48
2023-05-03T12:08:16.934Z,26.46
2023-05-03T12:09:22.193Z,26.42
2023-05-03T12:10:26.896Z,26.08
2023-05-03T12:11:32.188Z,26.28
2023-05-03T12:12:36.084Z,25.68
2023-05-03T12:13:38.585Z,25.93
2023-05-03T12:14:39.460Z,26.26
2023-05-03T12:15:43.938Z,25.95
2023-05-03T12:16:50.296Z,25.99
2023-05-03T12:17:54.877Z,25.88
2023-05-03T12:18:57.087Z,26.11
2023-05-03T12:20:33.110Z,25.92
2023-05-03T12:21:31.105Z,26.01
2023-05-03T12:22:23.824Z,25.79
2023-05-03T12:23:10.763Z,25.46
2023-05-03T12:24:15.081Z,25.09
2023-05-03T12:25:20.444Z,23.49
2023-05-03T12:26:22.990Z,23.81
2023-05-03T12:27:28.234Z,24.10
2023-05-03T12:28:31.633Z,23.52
2023-05-03T12:29:36.148Z,23.58
2023-05-03T12:30:40.780Z,22.92
2023-05-03T12:31:44.793Z,22.88
2023-05-03T12:32:50.270Z,23.52
2023-05-03T12:34:57.550Z,24.22
2023-05-03T12:36:04.243Z,24.44
2023-05-03T12:37:06.710Z,24.59
2023-05-03T12:38:11.018Z,24.65
2023-05-03T12:40:33.407Z,24.89
2023-05-03T12:41:51.969Z,25.07
2023-05-03T12:42:28.828Z,25.08
2023-05-03T12:43:32.130Z,24.77
2023-05-03T12:44:36.717Z,24.51
2023-05-03T12:45:41.655Z,24.09
2023-05-03T12:46:46.040Z,23.63
2023-05-03T12:47:50.296Z,24.11
2023-05-03T12:48:54.656Z,23.65
2023-05-03T12:49:59.987Z,22.43
2023-05-03T12:51:18.479Z,22.33
2023-05-03T12:53:09.421Z,22.80
2023-05-03T12:54:11.534Z,22.76
2023-05-03T12:56:24.161Z,23.20
2023-05-03T12:57:24.861Z,23.41
2023-05-03T13:00:37.886Z,23.81
2023-05-03T13:04:05.036Z,23.98
2023-05-03T13:04:58.709Z,23.92
2023-05-03T13:05:59.547Z,24.13
2023-05-03T13:07:07.470Z,23.85
2023-05-03T13:08:09.806Z,24.01
2023-05-03T13:09:19.254Z,23.69
2023-05-03T13:11:20.802Z,23.78
2023-05-03T13:12:25.267Z,23.89
2023-05-03T13:13:29.632Z,23.89
2023-05-03T13:14:33.701Z,23.92
2023-05-03T13:15:38.555Z,24.04
2023-05-03T13:16:42.691Z,23.19
2023-05-03T13:17:48.500Z,23.37
2023-05-03T13:18:51.053Z,23.57
2023-05-03T13:19:55.408Z,23.67
2023-05-03T13:20:59.762Z,23.52
2023-05-03T13:22:13.143Z,23.46
2023-05-03T13:23:10.003Z,23.58
2023-05-03T13:24:14.343Z,23.46
2023-05-03T13:25:18.651Z,23.53
2023-05-03T13:26:22.784Z,23.56
2023-05-03T13:27:26.850Z,23.55
2023-05-03T13:28:31.199Z,23.50
2023-05-03T13:29:35.765Z,23.35
2023-05-03T13:30:40.143Z,23.17
2023-05-03T13:31:44.291Z,23.24
2023-05-03T13:32:48.896Z,23.25
2023-05-03T13:33:53.152Z,23.18
2023-05-03T13:34:57.249Z,23.20
2023-05-03T13:36:01.860Z,23.26
2023-05-03T13:37:06.171Z,23.28
2023-05-03T13:38:10.260Z,23.24
2023-05-03T13:39:14.863Z,23.11
2023-05-03T13:40:18.970Z,23.11
2023-05-03T13:41:23.528Z,23.14
2023-05-03T13:42:28.145Z,23.09
2023-05-03T13:43:31.955Z,22.98
2023-05-03T13:44:36.308Z,23.01
2023-05-03T13:45:40.971Z,22.86
2023-05-03T13:46:44.988Z,22.61
2023-05-03T13:48:12.550Z,22.64
2023-05-03T13:48:53.788Z,22.70
2023-05-03T13:49:58.230Z,22.65
2023-05-03T13:51:02.866Z,22.65
2023-05-03T13:52:08.223Z,22.65
2023-05-03T13:53:12.462Z,22.14
2023-05-03T13:54:16.408Z,21.77
2023-05-03T13:55:20.993Z,21.76
2023-05-03T13:56:25.108Z,21.85
2023-05-03T13:57:29.698Z,21.96
2023-05-03T13:58:34.013Z,21.95
2023-05-03T13:59:38.604Z,21.52
2023-05-03T14:00:42.950Z,21.42
2023-05-03T14:01:47.107Z,21.44
2023-05-03T14:02:51.396Z,21.48
2023-05-03T14:03:55.568Z,21.61
2023-05-03T14:04:59.840Z,21.62
2023-05-03T14:06:04.175Z,21.10
2023-05-03T14:07:08.801Z,21.24
2023-05-03T14:08:13.177Z,21.34
2023-05-03T14:09:17.738Z,21.49
2023-05-03T14:10:21.815Z,21.63
2023-05-03T14:11:26.159Z,21.78
2023-05-03T14:12:30.557Z,21.84
2023-05-03T14:13:47.591Z,21.88